createdAt,value
2022-10-28T00:01:29.359Z,19.30
2022-10-28T00:03:46.011Z,19.23
2022-10-28T00:05:52.639Z,19.18
2022-10-28T00:07:58.862Z,19.13
2022-10-28T00:10:05.645Z,19.08
2022-10-28T00:12:11.643Z,19.02
2022-10-28T00:14:17.522Z,18.98
2022-10-28T00:16:25.915Z,18.91
2022-10-28T00:18:32.129Z,18.89
2022-10-28T00:20:38.572Z,18.84
2022-10-28T00:22:45.292Z,18.78
2022-10-28T00:24:51.676Z,18.72
2022-10-28T00:26:57.727Z,18.66
2022-10-28T00:29:12.800Z,18.60
2022-10-28T00:31:20.750Z,18.53
2022-10-28T00:33:27.669Z,18.47
2022-10-28T00:35:34.984Z,18.41
2022-10-28T00:37:41.450Z,18.35
2022-10-28T00:39:47.770Z,18.30
2022-10-28T00:42:00.294Z,18.25
2022-10-28T00:44:43.438Z,18.18
2022-10-28T00:46:54.540Z,18.07
2022-10-28T00:49:14.504Z,18.00
2022-10-28T00:51:22.586Z,17.92
2022-10-28T00:53:32.352Z,17.85
2022-10-28T00:55:39.085Z,17.77
2022-10-28T00:57:47.509Z,17.68
2022-10-28T00:59:55.731Z,17.59
2022-10-28T01:02:02.796Z,17.50
2022-10-28T01:04:10.427Z,17.40
2022-10-28T01:06:17.241Z,17.33
2022-10-28T01:08:23.670Z,17.26
2022-10-28T01:10:39.965Z,17.19
2022-10-28T01:12:55.409Z,17.11
2022-10-28T01:15:26.282Z,17.03
2022-10-28T01:18:09.769Z,16.94
2022-10-28T01:20:42.450Z,16.85
2022-10-28T01:22:55.676Z,16.77
2022-10-28T01:25:26.328Z,16.70
2022-10-28T01:27:48.709Z,16.63
2022-10-28T01:30:37.858Z,16.56
2022-10-28T01:32:55.996Z,16.46
2022-10-28T01:35:33.853Z,16.40
2022-10-28T01:38:26.853Z,16.34
2022-10-28T01:40:44.611Z,16.26
2022-10-28T01:43:16.959Z,16.19
2022-10-28T01:45:30.271Z,16.09
2022-10-28T01:47:46.667Z,16.02
2022-10-28T01:50:08.131Z,15.96
2022-10-28T01:52:18.359Z,15.88
2022-10-28T01:54:29.507Z,15.83
2022-10-28T01:56:41.790Z,15.77
2022-10-28T01:58:48.510Z,15.71
2022-10-28T02:00:56.298Z,15.67
2022-10-28T02:03:11.253Z,15.60
2022-10-28T02:05:42.908Z,15.54
2022-10-28T02:07:52.093Z,15.48
2022-10-28T02:10:28.926Z,15.44
2022-10-28T02:12:38.693Z,15.36
2022-10-28T02:15:16.383Z,15.32
2022-10-28T02:17:38.224Z,15.26
2022-10-28T02:20:16.489Z,15.19
2022-10-28T02:22:32.963Z,15.12
2022-10-28T02:24:44.572Z,15.05
2022-10-28T02:27:03.307Z,15.00
2022-10-28T02:29:27.964Z,14.94
2022-10-28T02:31:40.328Z,14.89
2022-10-28T02:33:52.277Z,14.84
2022-10-28T02:36:16.467Z,14.82
2022-10-28T02:38:44.130Z,14.82
2022-10-28T02:40:55.713Z,14.80
2022-10-28T02:43:08.782Z,14.76
2022-10-28T02:45:30.062Z,14.72
2022-10-28T02:47:42.048Z,14.67
2022-10-28T02:49:53.938Z,14.62
2022-10-28T02:52:01.524Z,14.55
2022-10-28T02:54:39.986Z,14.49
2022-10-28T02:57:11.775Z,14.43
2022-10-28T02:59:17.757Z,14.38
2022-10-28T03:01:24.338Z,14.34
2022-10-28T03:03:30.750Z,14.31
2022-10-28T03:05:37.432Z,14.25
2022-10-28T03:07:45.318Z,14.19
2022-10-28T03:09:52.378Z,14.15
2022-10-28T03:11:58.740Z,14.11
2022-10-28T03:14:05.270Z,14.04
2022-10-28T03:16:12.089Z,13.96
2022-10-28T03:18:18.462Z,13.88
2022-10-28T03:20:24.882Z,13.82
2022-10-28T03:22:30.731Z,13.75
2022-10-28T03:24:37.107Z,13.70
2022-10-28T03:26:43.656Z,13.66
2022-10-28T03:28:50.358Z,13.63
2022-10-28T03:30:56.671Z,13.59
2022-10-28T03:33:03.408Z,13.56
2022-10-28T03:35:10.382Z,13.53
2022-10-28T03:37:16.694Z,13.49
2022-10-28T03:39:23.295Z,13.45
2022-10-28T03:41:29.904Z,13.41
2022-10-28T03:43:36.300Z,13.31
2022-10-28T03:45:43.810Z,13.23
2022-10-28T03:47:50.652Z,13.18
2022-10-28T03:49:57.241Z,13.12
2022-10-28T03:52:05.151Z,13.09
2022-10-28T03:54:11.544Z,13.05
2022-10-28T03:56:17.878Z,13.01
2022-10-28T03:58:24.585Z,12.99
2022-10-28T04:00:31.750Z,12.96
2022-10-28T04:02:38.269Z,12.94
2022-10-28T04:04:44.766Z,12.88
2022-10-28T04:06:50.895Z,12.85
2022-10-28T04:08:57.595Z,12.81
2022-10-28T04:11:04.316Z,12.76
2022-10-28T04:13:11.727Z,12.73
2022-10-28T04:15:18.408Z,12.71
2022-10-28T04:17:25.014Z,12.68
2022-10-28T04:19:31.321Z,12.64
2022-10-28T04:21:37.739Z,12.57
2022-10-28T04:23:44.369Z,12.52
2022-10-28T04:25:55.241Z,12.50
2022-10-28T04:28:01.863Z,12.46
2022-10-28T04:30:09.691Z,12.40
2022-10-28T04:32:16.109Z,12.38
2022-10-28T04:34:22.128Z,12.35
2022-10-28T04:36:28.419Z,12.31
2022-10-28T04:38:34.659Z,12.25
2022-10-28T04:40:41.247Z,12.20
2022-10-28T04:42:48.006Z,12.18
2022-10-28T04:44:54.487Z,12.17
2022-10-28T04:47:01.570Z,12.14
2022-10-28T04:49:07.946Z,12.12
2022-10-28T04:51:14.272Z,12.09
2022-10-28T04:53:20.769Z,12.08
2022-10-28T04:55:27.042Z,12.06
2022-10-28T04:57:34.034Z,12.04
2022-10-28T04:59:40.398Z,12.02
2022-10-28T05:01:46.925Z,12.01
2022-10-28T05:03:53.415Z,11.99
2022-10-28T05:05:59.673Z,11.96
2022-10-28T05:08:06.304Z,11.93
2022-10-28T05:10:16.441Z,11.89
2022-10-28T05:12:22.861Z,11.88
2022-10-28T05:14:30.020Z,11.85
2022-10-28T05:16:36.365Z,11.82
2022-10-28T05:20:53.863Z,11.77
2022-10-28T05:23:00.726Z,11.74
2022-10-28T05:25:08.007Z,11.72
2022-10-28T05:27:14.414Z,11.70
2022-10-28T05:29:20.708Z,11.70
2022-10-28T05:31:26.801Z,11.69
2022-10-28T05:33:34.598Z,11.70
2022-10-28T05:35:41.898Z,11.70
2022-10-28T05:37:48.440Z,11.70
2022-10-28T05:39:54.810Z,11.69
2022-10-28T05:42:01.524Z,11.68
2022-10-28T05:44:08.176Z,11.67
2022-10-28T05:46:15.288Z,11.64
2022-10-28T05:48:22.322Z,11.60
2022-10-28T05:50:29.140Z,11.58
2022-10-28T05:52:35.611Z,11.56
2022-10-28T05:54:42.593Z,11.54
2022-10-28T05:56:48.831Z,11.53
2022-10-28T05:58:55.088Z,11.53
2022-10-28T06:01:01.917Z,11.51
2022-10-28T06:03:11.827Z,11.48
2022-10-28T06:05:18.697Z,11.43
2022-10-28T06:07:25.731Z,11.38
2022-10-28T06:09:32.233Z,11.36
2022-10-28T06:11:37.241Z,11.34
2022-10-28T06:13:44.029Z,11.31
2022-10-28T06:15:57.106Z,11.29
2022-10-28T06:18:04.287Z,11.26
2022-10-28T06:20:10.835Z,11.26
2022-10-28T06:22:17.076Z,11.24
2022-10-28T06:24:23.635Z,11.24
2022-10-28T06:26:29.843Z,11.25
2022-10-28T06:28:36.077Z,11.26
2022-10-28T06:30:42.747Z,11.25
2022-10-28T06:32:49.181Z,11.24
2022-10-28T06:34:55.504Z,11.21
2022-10-28T06:37:02.101Z,11.20
2022-10-28T06:39:08.297Z,11.18
2022-10-28T06:41:14.828Z,11.17
2022-10-28T06:43:21.182Z,11.17
2022-10-28T06:45:29.589Z,11.17
2022-10-28T06:47:40.606Z,11.16
2022-10-28T06:49:48.914Z,11.16
2022-10-28T06:51:55.302Z,11.16
2022-10-28T06:54:01.876Z,11.14
2022-10-28T06:56:08.412Z,11.12
2022-10-28T06:58:15.053Z,11.09
2022-10-28T07:00:25.870Z,11.06
2022-10-28T07:02:34.245Z,11.06
2022-10-28T07:04:41.084Z,11.07
2022-10-28T07:06:49.890Z,11.09
2022-10-28T07:08:58.565Z,11.09
2022-10-28T07:11:05.070Z,11.07
2022-10-28T07:13:11.212Z,11.07
2022-10-28T07:15:18.121Z,11.08
2022-10-28T07:17:25.080Z,11.07
2022-10-28T07:19:31.390Z,11.06
2022-10-28T07:21:38.496Z,11.05
2022-10-28T07:23:45.469Z,11.05
2022-10-28T07:25:56.590Z,11.06
2022-10-28T07:28:02.666Z,11.07
2022-10-28T07:30:09.697Z,11.07
2022-10-28T07:32:16.210Z,11.06
2022-10-28T07:34:26.807Z,11.05
2022-10-28T07:36:34.358Z,11.04
2022-10-28T07:38:41.634Z,11.03
2022-10-28T07:40:48.657Z,11.02
2022-10-28T07:42:55.553Z,11.01
2022-10-28T07:45:02.141Z,11.01
2022-10-28T07:47:08.718Z,11.00
2022-10-28T07:49:15.102Z,10.98
2022-10-28T07:51:21.259Z,10.96
2022-10-28T07:53:28.904Z,10.93
2022-10-28T07:55:35.526Z,10.91
2022-10-28T07:57:41.964Z,10.86
2022-10-28T07:59:48.734Z,10.88
2022-10-28T08:01:55.590Z,10.87
2022-10-28T08:04:02.308Z,10.86
2022-10-28T08:06:11.886Z,10.85
2022-10-28T08:08:18.060Z,10.85
2022-10-28T08:10:24.335Z,10.85
2022-10-28T08:12:31.861Z,10.84
2022-10-28T08:14:38.662Z,10.83
2022-10-28T08:16:45.293Z,10.83
2022-10-28T08:18:51.966Z,10.83
2022-10-28T08:23:12.669Z,10.83
2022-10-28T08:25:20.024Z,10.84
2022-10-28T08:27:26.542Z,10.85
2022-10-28T08:29:33.132Z,10.85
2022-10-28T08:31:40.458Z,10.84
2022-10-28T08:33:47.275Z,10.84
2022-10-28T08:35:53.723Z,10.83
2022-10-28T08:38:00.117Z,10.83
2022-10-28T08:40:07.217Z,10.82
2022-10-28T08:42:39.124Z,10.82
2022-10-28T08:45:04.120Z,10.80
2022-10-28T08:47:30.977Z,10.78
2022-10-28T08:49:43.369Z,10.76
2022-10-28T08:52:09.586Z,10.73
2022-10-28T08:54:23.360Z,10.72
2022-10-28T08:56:39.309Z,10.73
2022-10-28T08:58:48.645Z,10.74
2022-10-28T09:00:57.155Z,10.73
2022-10-28T09:03:21.603Z,10.73
2022-10-28T09:05:29.024Z,10.72
2022-10-28T09:07:38.481Z,10.71
2022-10-28T09:09:45.608Z,10.71
2022-10-28T09:12:10.755Z,10.68
2022-10-28T09:14:26.262Z,10.66
2022-10-28T09:16:49.292Z,10.65
2022-10-28T09:18:58.484Z,10.64
2022-10-28T09:21:12.133Z,10.64
2022-10-28T09:23:30.073Z,10.65
2022-10-28T09:25:40.652Z,10.66
2022-10-28T09:28:25.033Z,10.64
2022-10-28T09:30:53.207Z,10.62
2022-10-28T09:33:33.034Z,10.61
2022-10-28T09:35:43.986Z,10.61
2022-10-28T09:38:14.850Z,10.60
2022-10-28T09:40:28.640Z,10.60
2022-10-28T09:42:44.230Z,10.60
2022-10-28T09:45:16.263Z,10.60
2022-10-28T09:47:57.555Z,10.60
2022-10-28T09:50:08.584Z,10.62
2022-10-28T09:52:40.701Z,10.64
2022-10-28T09:54:52.887Z,10.67
2022-10-28T09:56:59.449Z,10.69
2022-10-28T09:59:06.202Z,10.70
2022-10-28T10:01:12.280Z,10.70
2022-10-28T10:03:19.236Z,10.71
2022-10-28T10:05:27.163Z,10.73
2022-10-28T10:08:01.689Z,10.72
2022-10-28T10:10:17.558Z,10.72
2022-10-28T10:12:23.859Z,10.70
2022-10-28T10:14:40.541Z,10.67
2022-10-28T10:16:58.755Z,10.65
2022-10-28T10:19:08.833Z,10.63
2022-10-28T10:21:17.276Z,10.62
2022-10-28T10:23:34.627Z,10.61
2022-10-28T10:25:41.192Z,10.58
2022-10-28T10:28:04.089Z,10.58
2022-10-28T10:30:22.833Z,10.58
2022-10-28T10:32:33.794Z,10.58
2022-10-28T10:34:45.237Z,10.59
2022-10-28T10:36:56.470Z,10.60
2022-10-28T10:39:04.871Z,10.61
2022-10-28T10:41:11.373Z,10.60
2022-10-28T10:43:20.534Z,10.59
2022-10-28T10:45:29.592Z,10.59
2022-10-28T10:47:36.351Z,10.59
2022-10-28T10:49:42.919Z,10.59
2022-10-28T10:52:00.506Z,10.59
2022-10-28T10:54:06.997Z,10.59
2022-10-28T10:56:16.838Z,10.58
2022-10-28T10:58:26.829Z,10.58
2022-10-28T11:00:46.541Z,10.59
2022-10-28T11:02:55.796Z,10.61
2022-10-28T11:05:08.405Z,10.60
2022-10-28T11:07:17.545Z,10.62
2022-10-28T11:09:41.179Z,10.62
2022-10-28T11:11:47.837Z,10.63
2022-10-28T11:14:06.069Z,10.63
2022-10-28T11:16:22.833Z,10.64
2022-10-28T11:18:32.738Z,10.63
2022-10-28T11:21:07.231Z,10.62
2022-10-28T11:23:13.760Z,10.61
2022-10-28T11:25:31.156Z,10.61
2022-10-28T11:27:48.654Z,10.61
2022-10-28T11:30:01.497Z,10.62
2022-10-28T11:32:56.194Z,10.61
2022-10-28T11:35:18.280Z,10.60
2022-10-28T11:37:39.940Z,10.59
2022-10-28T11:40:01.372Z,10.56
2022-10-28T11:42:14.517Z,10.54
2022-10-28T11:44:51.787Z,10.51
2022-10-28T11:47:06.958Z,10.48
2022-10-28T11:50:00.375Z,10.45
2022-10-28T11:52:45.486Z,10.42
2022-10-28T11:54:54.899Z,10.39
2022-10-28T11:57:31.427Z,10.38
2022-10-28T12:00:00.249Z,10.38
2022-10-28T12:02:43.120Z,10.37
2022-10-28T12:05:21.373Z,10.37
2022-10-28T12:07:30.438Z,10.38
2022-10-28T12:10:08.599Z,10.38
2022-10-28T12:12:44.825Z,10.39
2022-10-28T12:15:14.365Z,10.41
2022-10-28T12:17:39.605Z,10.42
2022-10-28T12:20:12.884Z,10.41
2022-10-28T12:22:45.568Z,10.40
2022-10-28T12:24:54.731Z,10.39
2022-10-28T12:27:06.910Z,10.37
2022-10-28T12:29:39.440Z,10.35
2022-10-28T12:31:50.314Z,10.33
2022-10-28T12:34:30.032Z,10.30
2022-10-28T12:36:52.198Z,10.26
2022-10-28T12:39:08.079Z,10.24
2022-10-28T12:41:31.611Z,10.23
2022-10-28T12:43:42.544Z,10.24
2022-10-28T12:45:51.505Z,10.24
2022-10-28T12:48:31.791Z,10.25
2022-10-28T12:50:46.493Z,10.24
2022-10-28T12:53:04.029Z,10.24
2022-10-28T12:55:22.758Z,10.23
2022-10-28T12:57:32.193Z,10.23
2022-10-28T12:59:47.160Z,10.24
2022-10-28T13:01:54.525Z,10.24
2022-10-28T13:04:01.905Z,10.24
2022-10-28T13:06:27.070Z,10.23
2022-10-28T13:08:50.980Z,10.22
2022-10-28T13:11:00.403Z,10.20
2022-10-28T13:13:12.575Z,10.15
2022-10-28T13:15:51.733Z,10.17
2022-10-28T13:18:30.532Z,10.17
2022-10-28T13:21:10.574Z,10.19
2022-10-28T13:23:29.987Z,10.21
2022-10-28T13:25:43.692Z,10.23
2022-10-28T13:27:56.426Z,10.25
2022-10-28T13:30:04.694Z,10.27
2022-10-28T13:32:38.434Z,10.29
2022-10-28T13:34:45.754Z,10.32
2022-10-28T13:37:04.466Z,10.33
2022-10-28T13:39:41.374Z,10.35
2022-10-28T13:41:48.864Z,10.36
2022-10-28T13:43:55.607Z,10.38
2022-10-28T13:46:01.793Z,10.41
2022-10-28T13:48:34.132Z,10.42
2022-10-28T13:50:40.207Z,10.44
2022-10-28T13:52:48.600Z,10.46
2022-10-28T13:54:57.740Z,10.49
2022-10-28T13:57:13.324Z,10.50
2022-10-28T13:59:23.221Z,10.52
2022-10-28T14:01:39.107Z,10.54
2022-10-28T14:03:53.763Z,10.56
2022-10-28T14:06:02.469Z,10.57
2022-10-28T14:08:20.029Z,10.57
2022-10-28T14:10:31.597Z,10.58
2022-10-28T14:12:44.483Z,10.59
2022-10-28T14:14:56.901Z,10.59
2022-10-28T14:17:03.588Z,10.61
2022-10-28T14:19:12.671Z,10.61
2022-10-28T14:21:19.472Z,10.62
2022-10-28T14:23:29.207Z,10.64
2022-10-28T14:25:49.344Z,10.65
2022-10-28T14:27:56.525Z,10.67
2022-10-28T14:30:03.143Z,10.69
2022-10-28T14:32:35.632Z,10.70
2022-10-28T14:34:45.461Z,10.73
2022-10-28T14:37:45.180Z,10.75
2022-10-28T14:40:10.674Z,10.77
2022-10-28T14:42:34.129Z,10.80
2022-10-28T14:45:00.850Z,10.81
2022-10-28T14:47:24.265Z,10.82
2022-10-28T14:49:37.643Z,10.84
2022-10-28T14:51:45.320Z,10.85
2022-10-28T14:53:58.475Z,10.85
2022-10-28T14:56:12.564Z,10.86
2022-10-28T14:58:28.766Z,10.85
2022-10-28T15:00:39.514Z,10.85
2022-10-28T15:02:46.577Z,10.84
2022-10-28T15:05:22.903Z,10.81
2022-10-28T15:07:31.848Z,10.81
2022-10-28T15:09:44.468Z,10.78
2022-10-28T15:12:07.731Z,10.76
2022-10-28T15:14:27.191Z,10.74
2022-10-28T15:16:35.012Z,10.73
2022-10-28T15:18:50.087Z,10.72
2022-10-28T15:21:11.580Z,10.70
2022-10-28T15:23:24.119Z,10.70
2022-10-28T15:25:30.865Z,10.70
2022-10-28T15:27:39.937Z,10.70
2022-10-28T15:29:46.242Z,10.70
2022-10-28T15:32:25.779Z,10.69
2022-10-28T15:34:32.215Z,10.70
2022-10-28T15:36:38.907Z,10.71
2022-10-28T15:38:46.664Z,10.71
2022-10-28T15:40:53.377Z,10.71
2022-10-28T15:43:02.348Z,10.71
2022-10-28T15:45:19.820Z,10.72
2022-10-28T15:47:34.066Z,10.72
2022-10-28T15:49:41.969Z,10.73
2022-10-28T15:52:20.536Z,10.73
2022-10-28T15:54:26.921Z,10.74
2022-10-28T15:56:32.962Z,10.74
2022-10-28T15:58:43.026Z,10.75
2022-10-28T16:00:54.119Z,10.76
2022-10-28T16:03:06.452Z,10.76
2022-10-28T16:05:33.726Z,10.76
2022-10-28T16:07:46.992Z,10.76
2022-10-28T16:09:53.245Z,10.77
2022-10-28T16:12:02.628Z,10.78
2022-10-28T16:14:35.927Z,10.79
2022-10-28T16:16:42.640Z,10.80
2022-10-28T16:18:55.390Z,10.81
2022-10-28T16:21:02.629Z,10.83
2022-10-28T16:23:17.146Z,10.83
2022-10-28T16:25:24.362Z,10.84
2022-10-28T16:27:33.400Z,10.85
2022-10-28T16:29:40.262Z,10.86
2022-10-28T16:31:51.373Z,10.87
2022-10-28T16:34:00.093Z,10.88
2022-10-28T16:36:06.591Z,10.89
2022-10-28T16:38:15.776Z,10.89
2022-10-28T16:40:49.811Z,10.90
2022-10-28T16:42:48.784Z,10.90
2022-10-28T16:44:55.237Z,10.90
2022-10-28T16:47:02.401Z,10.87
2022-10-28T16:49:08.522Z,10.86
2022-10-28T16:51:20.957Z,10.84
2022-10-28T16:53:27.769Z,10.81
2022-10-28T16:55:34.408Z,10.81
2022-10-28T16:57:40.961Z,10.79
2022-10-28T16:59:48.089Z,10.78
2022-10-28T17:01:54.300Z,10.77
2022-10-28T17:04:00.842Z,10.78
2022-10-28T17:06:08.025Z,10.78
2022-10-28T17:08:15.373Z,10.78
2022-10-28T17:10:21.499Z,10.78
2022-10-28T17:12:29.743Z,10.78
2022-10-28T17:14:36.282Z,10.75
2022-10-28T17:16:43.497Z,10.76
2022-10-28T17:18:53.743Z,10.75
2022-10-28T17:21:02.263Z,10.74
2022-10-28T17:23:08.906Z,10.74
2022-10-28T17:25:15.473Z,10.74
2022-10-28T17:27:22.123Z,10.72
2022-10-28T17:29:28.491Z,10.69
2022-10-28T17:31:35.068Z,10.65
2022-10-28T17:33:41.537Z,10.63
2022-10-28T17:35:48.163Z,10.62
2022-10-28T17:37:55.008Z,10.63
2022-10-28T17:40:01.769Z,10.62
2022-10-28T17:42:07.809Z,10.63
2022-10-28T17:44:13.876Z,10.63
2022-10-28T17:46:20.209Z,10.62
2022-10-28T17:48:26.726Z,10.61
2022-10-28T17:50:33.589Z,10.59
2022-10-28T17:52:39.940Z,10.61
2022-10-28T17:54:47.135Z,10.61
2022-10-28T17:56:53.433Z,10.61
2022-10-28T17:59:03.550Z,10.61
2022-10-28T18:01:10.355Z,10.61
2022-10-28T18:03:16.822Z,10.62
2022-10-28T18:05:23.252Z,10.62
2022-10-28T18:07:29.482Z,10.62
2022-10-28T18:09:35.822Z,10.63
2022-10-28T18:11:42.248Z,10.63
2022-10-28T18:13:50.989Z,10.62
2022-10-28T18:15:57.997Z,10.61
2022-10-28T18:18:04.231Z,10.61
2022-10-28T18:20:11.103Z,10.61
2022-10-28T18:22:18.268Z,10.62
2022-10-28T18:24:26.147Z,10.62
2022-10-28T18:26:34.272Z,10.61
2022-10-28T18:28:41.399Z,10.63
2022-10-28T18:30:48.380Z,10.65
2022-10-28T18:32:55.017Z,10.68
2022-10-28T18:35:01.933Z,10.70
2022-10-28T18:37:10.716Z,10.73
2022-10-28T18:39:17.410Z,10.76
2022-10-28T18:41:29.253Z,10.77
2022-10-28T18:43:35.620Z,10.78
2022-10-28T18:45:41.611Z,10.79
2022-10-28T18:47:48.486Z,10.82
2022-10-28T18:49:55.493Z,10.85
2022-10-28T18:52:02.232Z,10.88
2022-10-28T18:54:09.453Z,10.91
2022-10-28T18:56:18.575Z,10.94
2022-10-28T18:58:27.616Z,10.96
2022-10-28T19:00:36.113Z,10.98
2022-10-28T19:02:47.286Z,11.01
2022-10-28T19:04:54.469Z,11.03
2022-10-28T19:07:01.194Z,11.05
2022-10-28T19:09:08.699Z,11.08
2022-10-28T19:11:15.403Z,11.10
2022-10-28T19:13:21.446Z,11.13
2022-10-28T19:15:27.705Z,11.17
2022-10-28T19:17:34.167Z,11.19
2022-10-28T19:19:40.701Z,11.20
2022-10-28T19:21:47.280Z,11.21
2022-10-28T19:23:53.798Z,11.22
2022-10-28T19:26:01.267Z,11.23
2022-10-28T19:28:07.535Z,11.25
2022-10-28T19:30:14.537Z,11.25
2022-10-28T19:32:21.255Z,11.28
2022-10-28T19:34:28.922Z,11.29
2022-10-28T19:36:35.676Z,11.31
2022-10-28T19:38:42.348Z,11.33
2022-10-28T19:40:48.898Z,11.36
2022-10-28T19:42:55.755Z,11.38
2022-10-28T19:45:05.074Z,11.40
2022-10-28T19:47:11.682Z,11.39
2022-10-28T19:49:19.302Z,11.42
2022-10-28T19:51:34.155Z,11.44
2022-10-28T19:53:40.313Z,11.45
2022-10-28T19:55:46.950Z,11.46
2022-10-28T19:57:54.127Z,11.48
2022-10-28T20:00:00.681Z,11.50
2022-10-28T20:02:07.122Z,11.52
2022-10-28T20:04:13.795Z,11.53
2022-10-28T20:06:22.067Z,11.55
2022-10-28T20:08:28.360Z,11.56
2022-10-28T20:10:35.346Z,11.56
2022-10-28T20:12:41.807Z,11.56
2022-10-28T20:14:48.355Z,11.54
2022-10-28T20:16:54.783Z,11.51
2022-10-28T20:19:01.368Z,11.50
2022-10-28T20:21:19.084Z,11.53
2022-10-28T20:23:25.615Z,11.54
2022-10-28T20:25:32.010Z,11.57
2022-10-28T20:27:38.479Z,11.58
2022-10-28T20:29:45.216Z,11.60
2022-10-28T20:31:53.426Z,11.62
2022-10-28T20:34:02.639Z,11.63
2022-10-28T20:36:29.973Z,11.64
2022-10-28T20:38:36.385Z,11.69
2022-10-28T20:40:42.865Z,11.71
2022-10-28T20:42:49.422Z,11.74
2022-10-28T20:44:56.236Z,11.75
2022-10-28T20:47:02.737Z,11.77
2022-10-28T20:49:12.055Z,11.79
2022-10-28T20:51:18.885Z,11.80
2022-10-28T20:53:27.362Z,11.83
2022-10-28T20:55:33.452Z,11.85
2022-10-28T20:57:39.391Z,11.88
2022-10-28T20:59:46.278Z,11.90
2022-10-28T21:01:52.782Z,11.92
2022-10-28T21:04:01.641Z,11.93
2022-10-28T21:06:08.064Z,11.95
2022-10-28T21:08:14.586Z,11.93
2022-10-28T21:10:20.912Z,11.93
2022-10-28T21:12:27.576Z,11.94
2022-10-28T21:14:33.774Z,11.94
2022-10-28T21:16:39.849Z,11.91
2022-10-28T21:18:45.912Z,11.91
2022-10-28T21:20:57.995Z,11.88
2022-10-28T21:23:05.237Z,11.82
2022-10-28T21:25:11.928Z,11.79
2022-10-28T21:27:18.075Z,11.78
2022-10-28T21:29:24.775Z,11.76
2022-10-28T21:31:31.356Z,11.74
2022-10-28T21:33:39.344Z,11.73
2022-10-28T21:35:45.754Z,11.68
2022-10-28T21:37:52.308Z,11.69
2022-10-28T21:40:00.927Z,11.68
2022-10-28T21:42:08.121Z,11.67
2022-10-28T21:44:14.321Z,11.67
2022-10-28T21:46:22.182Z,11.69
2022-10-28T21:48:29.925Z,11.70
2022-10-28T21:50:36.925Z,11.72
2022-10-28T21:52:43.404Z,11.72
2022-10-28T21:54:49.556Z,11.74
2022-10-28T21:56:56.028Z,11.74
2022-10-28T21:59:02.759Z,11.76
2022-10-28T22:01:10.751Z,11.77
2022-10-28T22:03:17.516Z,11.78
2022-10-28T22:05:23.963Z,11.79
2022-10-28T22:07:30.114Z,11.80
2022-10-28T22:09:37.617Z,11.79
2022-10-28T22:11:44.313Z,11.79
2022-10-28T22:14:00.596Z,11.80
2022-10-28T22:16:09.755Z,11.80
2022-10-28T22:18:16.332Z,11.81
2022-10-28T22:20:22.744Z,11.81
2022-10-28T22:22:31.136Z,11.82
2022-10-28T22:24:37.598Z,11.82
2022-10-28T22:26:43.859Z,11.83
2022-10-28T22:28:51.582Z,11.82
2022-10-28T22:31:09.932Z,11.79
2022-10-28T22:33:15.849Z,11.76
2022-10-28T22:35:22.039Z,11.75
2022-10-28T22:37:28.464Z,11.74
2022-10-28T22:39:35.001Z,11.73
2022-10-28T22:41:41.300Z,11.70
2022-10-28T22:43:58.693Z,11.67
2022-10-28T22:46:07.754Z,11.67
2022-10-28T22:48:13.865Z,11.66
2022-10-28T22:50:20.659Z,11.65
2022-10-28T22:52:27.079Z,11.64
2022-10-28T22:54:33.655Z,11.64
2022-10-28T22:56:40.255Z,11.65
2022-10-28T22:58:46.546Z,11.67
2022-10-28T23:00:53.318Z,11.68
2022-10-28T23:02:59.814Z,11.68
2022-10-28T23:05:06.783Z,11.68
2022-10-28T23:07:13.529Z,11.69
2022-10-28T23:09:20.268Z,11.72
2022-10-28T23:11:28.102Z,11.74
2022-10-28T23:13:34.800Z,11.76
2022-10-28T23:15:40.955Z,11.77
2022-10-28T23:17:50.806Z,11.78
2022-10-28T23:19:57.443Z,11.81
2022-10-28T23:22:03.531Z,11.83
2022-10-28T23:24:10.323Z,11.85
2022-10-28T23:26:16.999Z,11.87
2022-10-28T23:28:23.572Z,11.88
2022-10-28T23:30:30.339Z,11.88
2022-10-28T23:32:37.045Z,11.90
2022-10-28T23:34:43.657Z,11.90
2022-10-28T23:36:55.025Z,11.91
2022-10-28T23:39:01.994Z,11.92
2022-10-28T23:41:10.893Z,11.95
2022-10-28T23:43:17.549Z,11.98
2022-10-28T23:45:24.339Z,11.99
2022-10-28T23:47:30.728Z,12.01
2022-10-28T23:49:37.328Z,12.03
2022-10-28T23:51:43.551Z,12.05
2022-10-28T23:53:49.842Z,12.07
2022-10-28T23:55:56.166Z,12.07
2022-10-28T23:58:02.506Z,12.07
